sensor_id;sensor_type;location;lat;lon;timestamp;temperature;humidity
24224;DHT22;12359;49.716;9.212;2022-12-05T00:03:58;4.40;80.30
24224;DHT22;12359;49.716;9.212;2022-12-05T00:06:25;4.50;80.00
24224;DHT22;12359;49.716;9.212;2022-12-05T00:08:52;4.40;79.00
24224;DHT22;12359;49.716;9.212;2022-12-05T00:11:23;4.50;78.90
24224;DHT22;12359;49.716;9.212;2022-12-05T00:13:52;4.40;78.00
24224;DHT22;12359;49.716;9.212;2022-12-05T00:16:20;4.40;77.40
24224;DHT22;12359;49.716;9.212;2022-12-05T00:18:46;4.40;77.60
24224;DHT22;12359;49.716;9.212;2022-12-05T00:21:23;4.40;80.80
24224;DHT22;12359;49.716;9.212;2022-12-05T00:23:50;4.40;80.20
24224;DHT22;12359;49.716;9.212;2022-12-05T00:26:16;4.40;81.50
24224;DHT22;12359;49.716;9.212;2022-12-05T00:28:42;4.40;82.10
24224;DHT22;12359;49.716;9.212;2022-12-05T00:31:11;4.40;80.10
24224;DHT22;12359;49.716;9.212;2022-12-05T00:33:38;4.40;81.30
24224;DHT22;12359;49.716;9.212;2022-12-05T00:36:06;4.40;83.00
24224;DHT22;12359;49.716;9.212;2022-12-05T00:38:32;4.40;80.60
24224;DHT22;12359;49.716;9.212;2022-12-05T00:41:06;4.40;80.70
24224;DHT22;12359;49.716;9.212;2022-12-05T00:43:32;4.40;79.80
24224;DHT22;12359;49.716;9.212;2022-12-05T00:46:07;4.40;78.30
24224;DHT22;12359;49.716;9.212;2022-12-05T00:48:34;4.40;78.30
24224;DHT22;12359;49.716;9.212;2022-12-05T00:51:02;4.40;79.80
24224;DHT22;12359;49.716;9.212;2022-12-05T00:53:28;4.40;79.50
24224;DHT22;12359;49.716;9.212;2022-12-05T00:55:53;4.40;79.30
24224;DHT22;12359;49.716;9.212;2022-12-05T00:58:19;4.40;80.60
24224;DHT22;12359;49.716;9.212;2022-12-05T01:00:45;4.40;81.40
24224;DHT22;12359;49.716;9.212;2022-12-05T01:03:10;4.40;81.20
24224;DHT22;12359;49.716;9.212;2022-12-05T01:05:36;4.40;81.00
24224;DHT22;12359;49.716;9.212;2022-12-05T01:08:02;4.40;80.30
24224;DHT22;12359;49.716;9.212;2022-12-05T01:10:27;4.40;79.20
24224;DHT22;12359;49.716;9.212;2022-12-05T01:12:53;4.40;80.70
24224;DHT22;12359;49.716;9.212;2022-12-05T01:15:19;4.40;79.40
24224;DHT22;12359;49.716;9.212;2022-12-05T01:17:44;4.50;79.80
24224;DHT22;12359;49.716;9.212;2022-12-05T01:20:10;4.40;78.00
24224;DHT22;12359;49.716;9.212;2022-12-05T01:22:36;4.40;75.60
24224;DHT22;12359;49.716;9.212;2022-12-05T01:25:02;4.40;78.30
24224;DHT22;12359;49.716;9.212;2022-12-05T01:27:27;4.50;80.00
24224;DHT22;12359;49.716;9.212;2022-12-05T01:29:53;4.50;78.10
24224;DHT22;12359;49.716;9.212;2022-12-05T01:32:19;4.50;76.80
24224;DHT22;12359;49.716;9.212;2022-12-05T01:34:44;4.50;76.50
24224;DHT22;12359;49.716;9.212;2022-12-05T01:37:10;4.40;76.40
24224;DHT22;12359;49.716;9.212;2022-12-05T01:39:35;4.40;77.20
24224;DHT22;12359;49.716;9.212;2022-12-05T01:42:03;4.40;78.00
24224;DHT22;12359;49.716;9.212;2022-12-05T01:46:55;4.40;80.00
24224;DHT22;12359;49.716;9.212;2022-12-05T01:49:29;4.40;79.40
24224;DHT22;12359;49.716;9.212;2022-12-05T01:51:59;4.30;79.00
24224;DHT22;12359;49.716;9.212;2022-12-05T01:54:26;4.40;81.60
24224;DHT22;12359;49.716;9.212;2022-12-05T01:57:01;4.40;82.40
24224;DHT22;12359;49.716;9.212;2022-12-05T01:59:31;4.40;82.60
24224;DHT22;12359;49.716;9.212;2022-12-05T02:01:58;4.40;82.20
24224;DHT22;12359;49.716;9.212;2022-12-05T02:04:24;4.50;81.50
24224;DHT22;12359;49.716;9.212;2022-12-05T02:06:52;4.50;80.20
24224;DHT22;12359;49.716;9.212;2022-12-05T02:09:18;4.50;80.60
24224;DHT22;12359;49.716;9.212;2022-12-05T02:11:57;4.50;79.30
24224;DHT22;12359;49.716;9.212;2022-12-05T02:14:37;4.40;78.10
24224;DHT22;12359;49.716;9.212;2022-12-05T02:43:25;4.50;83.80
24224;DHT22;12359;49.716;9.212;2022-12-05T02:45:57;4.40;82.50
24224;DHT22;12359;49.716;9.212;2022-12-05T02:48:27;4.50;83.20
24224;DHT22;12359;49.716;9.212;2022-12-05T02:50:55;4.40;83.10
24224;DHT22;12359;49.716;9.212;2022-12-05T02:53:24;4.40;81.50
24224;DHT22;12359;49.716;9.212;2022-12-05T02:55:50;4.50;84.50
24224;DHT22;12359;49.716;9.212;2022-12-05T02:58:23;4.50;83.20
24224;DHT22;12359;49.716;9.212;2022-12-05T03:00:53;4.50;83.40
24224;DHT22;12359;49.716;9.212;2022-12-05T03:03:21;4.50;82.20
24224;DHT22;12359;49.716;9.212;2022-12-05T03:05:56;4.50;82.40
24224;DHT22;12359;49.716;9.212;2022-12-05T03:08:27;4.60;82.50
24224;DHT22;12359;49.716;9.212;2022-12-05T03:10:54;4.60;81.40
24224;DHT22;12359;49.716;9.212;2022-12-05T03:13:27;4.60;80.50
24224;DHT22;12359;49.716;9.212;2022-12-05T03:16:01;4.60;81.70
24224;DHT22;12359;49.716;9.212;2022-12-05T03:18:55;4.60;79.60
24224;DHT22;12359;49.716;9.212;2022-12-05T03:21:37;4.60;80.40
24224;DHT22;12359;49.716;9.212;2022-12-05T03:24:10;4.60;78.30
24224;DHT22;12359;49.716;9.212;2022-12-05T03:42:39;4.60;79.60
24224;DHT22;12359;49.716;9.212;2022-12-05T03:45:11;4.60;80.00
24224;DHT22;12359;49.716;9.212;2022-12-05T03:50:25;4.60;78.50
24224;DHT22;12359;49.716;9.212;2022-12-05T03:53:04;4.60;77.20
24224;DHT22;12359;49.716;9.212;2022-12-05T03:55:33;4.60;77.90
24224;DHT22;12359;49.716;9.212;2022-12-05T03:58:06;4.60;78.30
24224;DHT22;12359;49.716;9.212;2022-12-05T04:00:37;4.60;79.60
24224;DHT22;12359;49.716;9.212;2022-12-05T04:03:14;4.60;78.10
24224;DHT22;12359;49.716;9.212;2022-12-05T04:05:56;4.60;79.80
24224;DHT22;12359;49.716;9.212;2022-12-05T04:08:37;4.60;76.30
24224;DHT22;12359;49.716;9.212;2022-12-05T04:11:09;4.60;78.70
24224;DHT22;12359;49.716;9.212;2022-12-05T04:13:44;4.60;77.00
24224;DHT22;12359;49.716;9.212;2022-12-05T04:16:18;4.60;78.20
24224;DHT22;12359;49.716;9.212;2022-12-05T04:21:48;4.60;80.70
24224;DHT22;12359;49.716;9.212;2022-12-05T04:24:41;4.70;80.40
24224;DHT22;12359;49.716;9.212;2022-12-05T04:27:42;4.70;80.20
24224;DHT22;12359;49.716;9.212;2022-12-05T04:30:15;4.70;80.10
24224;DHT22;12359;49.716;9.212;2022-12-05T04:32:59;4.70;79.70
24224;DHT22;12359;49.716;9.212;2022-12-05T04:35:32;4.70;80.70
24224;DHT22;12359;49.716;9.212;2022-12-05T04:38:16;4.70;79.90
24224;DHT22;12359;49.716;9.212;2022-12-05T04:40:51;4.70;77.80
24224;DHT22;12359;49.716;9.212;2022-12-05T04:43:19;4.60;75.30
24224;DHT22;12359;49.716;9.212;2022-12-05T04:45:46;4.70;79.50
24224;DHT22;12359;49.716;9.212;2022-12-05T04:48:15;4.70;81.00
24224;DHT22;12359;49.716;9.212;2022-12-05T04:50:44;4.70;81.70
24224;DHT22;12359;49.716;9.212;2022-12-05T04:53:11;4.80;81.30
24224;DHT22;12359;49.716;9.212;2022-12-05T04:55:41;4.70;79.60
24224;DHT22;12359;49.716;9.212;2022-12-05T04:58:30;4.80;80.30
24224;DHT22;12359;49.716;9.212;2022-12-05T05:01:09;4.70;78.50
24224;DHT22;12359;49.716;9.212;2022-12-05T05:03:42;4.80;81.50
24224;DHT22;12359;49.716;9.212;2022-12-05T05:06:11;4.80;78.70
24224;DHT22;12359;49.716;9.212;2022-12-05T05:08:52;4.80;78.10
24224;DHT22;12359;49.716;9.212;2022-12-05T05:11:27;4.80;79.00
24224;DHT22;12359;49.716;9.212;2022-12-05T05:13:53;4.80;77.00
24224;DHT22;12359;49.716;9.212;2022-12-05T05:18:47;4.80;74.10
24224;DHT22;12359;49.716;9.212;2022-12-05T05:21:25;4.80;75.40
24224;DHT22;12359;49.716;9.212;2022-12-05T05:23:51;4.80;76.70
24224;DHT22;12359;49.716;9.212;2022-12-05T05:26:17;4.70;77.90
24224;DHT22;12359;49.716;9.212;2022-12-05T05:28:43;4.80;78.70
24224;DHT22;12359;49.716;9.212;2022-12-05T05:31:10;4.80;80.10
24224;DHT22;12359;49.716;9.212;2022-12-05T05:33:36;4.80;80.80
24224;DHT22;12359;49.716;9.212;2022-12-05T05:36:07;4.80;80.90
24224;DHT22;12359;49.716;9.212;2022-12-05T05:38:38;4.80;80.10
24224;DHT22;12359;49.716;9.212;2022-12-05T05:41:04;4.80;79.40
24224;DHT22;12359;49.716;9.212;2022-12-05T05:43:30;4.80;76.90
24224;DHT22;12359;49.716;9.212;2022-12-05T05:45:56;4.80;78.50
24224;DHT22;12359;49.716;9.212;2022-12-05T05:48:22;4.80;76.10
24224;DHT22;12359;49.716;9.212;2022-12-05T05:50:48;4.90;77.20
24224;DHT22;12359;49.716;9.212;2022-12-05T05:53:14;4.80;70.60
24224;DHT22;12359;49.716;9.212;2022-12-05T05:55:40;4.70;72.70
24224;DHT22;12359;49.716;9.212;2022-12-05T05:58:06;4.70;76.40
24224;DHT22;12359;49.716;9.212;2022-12-05T06:00:32;4.70;81.00
24224;DHT22;12359;49.716;9.212;2022-12-05T06:02:57;4.70;82.00
24224;DHT22;12359;49.716;9.212;2022-12-05T06:05:23;4.70;78.60
24224;DHT22;12359;49.716;9.212;2022-12-05T06:07:51;4.70;78.40
24224;DHT22;12359;49.716;9.212;2022-12-05T06:10:16;4.70;77.70
24224;DHT22;12359;49.716;9.212;2022-12-05T06:12:42;4.60;78.60
24224;DHT22;12359;49.716;9.212;2022-12-05T06:15:08;4.60;80.30
24224;DHT22;12359;49.716;9.212;2022-12-05T06:17:34;4.60;83.00
24224;DHT22;12359;49.716;9.212;2022-12-05T06:19:59;4.70;84.00
24224;DHT22;12359;49.716;9.212;2022-12-05T06:22:25;4.70;83.00
24224;DHT22;12359;49.716;9.212;2022-12-05T06:24:51;4.70;81.10
24224;DHT22;12359;49.716;9.212;2022-12-05T06:27:16;4.80;80.00
24224;DHT22;12359;49.716;9.212;2022-12-05T06:29:42;4.80;79.40
24224;DHT22;12359;49.716;9.212;2022-12-05T06:32:08;4.80;79.80
24224;DHT22;12359;49.716;9.212;2022-12-05T06:34:37;4.80;76.60
24224;DHT22;12359;49.716;9.212;2022-12-05T06:37:02;4.80;75.70
24224;DHT22;12359;49.716;9.212;2022-12-05T06:39:28;4.90;77.10
24224;DHT22;12359;49.716;9.212;2022-12-05T06:41:54;4.80;76.40
24224;DHT22;12359;49.716;9.212;2022-12-05T06:44:20;4.90;76.30
24224;DHT22;12359;49.716;9.212;2022-12-05T06:46:47;4.90;76.70
24224;DHT22;12359;49.716;9.212;2022-12-05T06:49:13;4.90;76.40
24224;DHT22;12359;49.716;9.212;2022-12-05T06:51:38;4.90;76.30
24224;DHT22;12359;49.716;9.212;2022-12-05T06:54:04;4.90;76.70
24224;DHT22;12359;49.716;9.212;2022-12-05T06:56:30;5.00;78.60
24224;DHT22;12359;49.716;9.212;2022-12-05T06:58:55;5.00;78.20
24224;DHT22;12359;49.716;9.212;2022-12-05T07:01:23;5.00;77.30
24224;DHT22;12359;49.716;9.212;2022-12-05T07:04:15;5.00;77.80
24224;DHT22;12359;49.716;9.212;2022-12-05T07:06:42;5.00;75.70
24224;DHT22;12359;49.716;9.212;2022-12-05T07:09:09;5.00;70.10
24224;DHT22;12359;49.716;9.212;2022-12-05T07:11:36;5.00;75.80
24224;DHT22;12359;49.716;9.212;2022-12-05T07:14:03;5.10;76.50
24224;DHT22;12359;49.716;9.212;2022-12-05T07:16:29;5.00;73.40
24224;DHT22;12359;49.716;9.212;2022-12-05T07:18:55;5.00;70.20
24224;DHT22;12359;49.716;9.212;2022-12-05T07:21:21;5.00;73.50
24224;DHT22;12359;49.716;9.212;2022-12-05T07:23:48;5.00;71.00
24224;DHT22;12359;49.716;9.212;2022-12-05T07:26:17;5.10;71.50
24224;DHT22;12359;49.716;9.212;2022-12-05T07:28:43;5.00;69.30
24224;DHT22;12359;49.716;9.212;2022-12-05T07:31:11;5.00;68.30
24224;DHT22;12359;49.716;9.212;2022-12-05T07:33:37;5.00;68.60
24224;DHT22;12359;49.716;9.212;2022-12-05T07:36:09;5.10;68.50
24224;DHT22;12359;49.716;9.212;2022-12-05T07:38:35;5.10;65.30
24224;DHT22;12359;49.716;9.212;2022-12-05T07:41:05;5.10;68.80
24224;DHT22;12359;49.716;9.212;2022-12-05T07:43:31;5.10;69.20
24224;DHT22;12359;49.716;9.212;2022-12-05T07:46:04;5.20;67.20
24224;DHT22;12359;49.716;9.212;2022-12-05T07:48:30;5.20;68.70
24224;DHT22;12359;49.716;9.212;2022-12-05T07:51:04;5.20;63.40
24224;DHT22;12359;49.716;9.212;2022-12-05T07:53:31;5.20;55.80
24224;DHT22;12359;49.716;9.212;2022-12-05T07:56:02;5.10;56.70
24224;DHT22;12359;49.716;9.212;2022-12-05T07:58:29;5.00;55.70
24224;DHT22;12359;49.716;9.212;2022-12-05T08:00:55;5.00;57.70
24224;DHT22;12359;49.716;9.212;2022-12-05T08:03:21;5.00;58.50
24224;DHT22;12359;49.716;9.212;2022-12-05T08:05:47;5.10;62.30
24224;DHT22;12359;49.716;9.212;2022-12-05T08:08:12;5.10;63.20
24224;DHT22;12359;49.716;9.212;2022-12-05T08:10:38;5.20;64.90
24224;DHT22;12359;49.716;9.212;2022-12-05T08:13:03;5.10;63.50
24224;DHT22;12359;49.716;9.212;2022-12-05T08:15:29;5.10;55.40
24224;DHT22;12359;49.716;9.212;2022-12-05T08:17:55;5.10;56.20
24224;DHT22;12359;49.716;9.212;2022-12-05T08:20:21;5.00;52.80
24224;DHT22;12359;49.716;9.212;2022-12-05T08:22:46;4.90;50.90
24224;DHT22;12359;49.716;9.212;2022-12-05T08:25:12;4.90;52.00
24224;DHT22;12359;49.716;9.212;2022-12-05T08:27:38;4.90;48.70
24224;DHT22;12359;49.716;9.212;2022-12-05T08:30:04;4.90;49.00
24224;DHT22;12359;49.716;9.212;2022-12-05T08:32:30;5.00;49.60
24224;DHT22;12359;49.716;9.212;2022-12-05T08:34:56;5.00;54.60
24224;DHT22;12359;49.716;9.212;2022-12-05T08:37:21;5.00;51.00
24224;DHT22;12359;49.716;9.212;2022-12-05T08:39:47;5.00;53.80
24224;DHT22;12359;49.716;9.212;2022-12-05T08:42:13;5.00;54.60
24224;DHT22;12359;49.716;9.212;2022-12-05T08:44:38;4.90;50.80
24224;DHT22;12359;49.716;9.212;2022-12-05T08:47:04;4.90;52.80
24224;DHT22;12359;49.716;9.212;2022-12-05T08:49:30;5.00;57.80
24224;DHT22;12359;49.716;9.212;2022-12-05T08:51:55;5.00;52.30
24224;DHT22;12359;49.716;9.212;2022-12-05T08:54:21;5.10;51.50
24224;DHT22;12359;49.716;9.212;2022-12-05T08:56:50;5.10;47.80
24224;DHT22;12359;49.716;9.212;2022-12-05T08:59:16;5.10;48.30
24224;DHT22;12359;49.716;9.212;2022-12-05T09:01:41;5.20;47.00
24224;DHT22;12359;49.716;9.212;2022-12-05T09:04:07;5.20;50.10
24224;DHT22;12359;49.716;9.212;2022-12-05T09:06:34;5.20;50.00
24224;DHT22;12359;49.716;9.212;2022-12-05T09:09:02;5.20;52.60
24224;DHT22;12359;49.716;9.212;2022-12-05T09:11:31;5.30;52.30
24224;DHT22;12359;49.716;9.212;2022-12-05T09:13:59;5.40;48.40
24224;DHT22;12359;49.716;9.212;2022-12-05T09:16:44;5.40;43.00
24224;DHT22;12359;49.716;9.212;2022-12-05T09:19:14;5.50;41.30
24224;DHT22;12359;49.716;9.212;2022-12-05T09:21:40;5.50;39.20
24224;DHT22;12359;49.716;9.212;2022-12-05T09:24:10;5.70;37.70
24224;DHT22;12359;49.716;9.212;2022-12-05T09:26:36;5.70;33.20
24224;DHT22;12359;49.716;9.212;2022-12-05T09:29:02;5.80;35.80
24224;DHT22;12359;49.716;9.212;2022-12-05T09:31:27;5.90;30.50
24224;DHT22;12359;49.716;9.212;2022-12-05T09:33:54;6.00;28.90
24224;DHT22;12359;49.716;9.212;2022-12-05T09:36:23;6.10;27.00
24224;DHT22;12359;49.716;9.212;2022-12-05T09:38:49;6.10;20.90
24224;DHT22;12359;49.716;9.212;2022-12-05T09:47:01;5.90;12.50
24224;DHT22;12359;49.716;9.212;2022-12-05T09:49:29;6.00;19.00
24224;DHT22;12359;49.716;9.212;2022-12-05T09:51:56;5.90;15.20
24224;DHT22;12359;49.716;9.212;2022-12-05T09:54:24;5.90;12.20
24224;DHT22;12359;49.716;9.212;2022-12-05T09:56:50;5.90;14.10
24224;DHT22;12359;49.716;9.212;2022-12-05T09:59:18;5.90;15.00
24224;DHT22;12359;49.716;9.212;2022-12-05T10:02:05;5.80;10.50
24224;DHT22;12359;49.716;9.212;2022-12-05T10:04:54;5.90;8.00
24224;DHT22;12359;49.716;9.212;2022-12-05T10:07:34;5.90;13.10
24224;DHT22;12359;49.716;9.212;2022-12-05T10:15:35;6.10;13.10
24224;DHT22;12359;49.716;9.212;2022-12-05T10:20:43;6.20;14.60
24224;DHT22;12359;49.716;9.212;2022-12-05T10:23:16;6.30;14.80
24224;DHT22;12359;49.716;9.212;2022-12-05T10:25:43;6.30;11.80
24224;DHT22;12359;49.716;9.212;2022-12-05T10:28:23;6.20;2.90
24224;DHT22;12359;49.716;9.212;2022-12-05T10:30:55;6.10;10.70
24224;DHT22;12359;49.716;9.212;2022-12-05T10:33:29;6.10;15.10
24224;DHT22;12359;49.716;9.212;2022-12-05T10:35:58;6.10;16.20
24224;DHT22;12359;49.716;9.212;2022-12-05T10:38:30;6.10;19.70
24224;DHT22;12359;49.716;9.212;2022-12-05T10:41:03;6.10;23.60
24224;DHT22;12359;49.716;9.212;2022-12-05T10:43:31;6.10;22.90
24224;DHT22;12359;49.716;9.212;2022-12-05T10:45:58;6.00;27.70
24224;DHT22;12359;49.716;9.212;2022-12-05T10:48:24;6.00;32.30
24224;DHT22;12359;49.716;9.212;2022-12-05T10:50:54;6.00;33.60
24224;DHT22;12359;49.716;9.212;2022-12-05T10:53:24;6.10;33.20
24224;DHT22;12359;49.716;9.212;2022-12-05T10:55:51;6.10;27.10
24224;DHT22;12359;49.716;9.212;2022-12-05T10:58:26;6.10;30.00
24224;DHT22;12359;49.716;9.212;2022-12-05T11:01:07;6.20;33.20
24224;DHT22;12359;49.716;9.212;2022-12-05T11:03:37;6.40;33.50
24224;DHT22;12359;49.716;9.212;2022-12-05T11:06:17;6.50;30.00
24224;DHT22;12359;49.716;9.212;2022-12-05T11:08:51;6.40;22.80
24224;DHT22;12359;49.716;9.212;2022-12-05T11:11:18;6.50;24.10
24224;DHT22;12359;49.716;9.212;2022-12-05T11:14:03;6.60;18.80
24224;DHT22;12359;49.716;9.212;2022-12-05T11:16:32;6.60;22.30
24224;DHT22;12359;49.716;9.212;2022-12-05T11:19:22;6.70;16.30
24224;DHT22;12359;49.716;9.212;2022-12-05T11:21:50;6.80;13.60
24224;DHT22;12359;49.716;9.212;2022-12-05T11:26:46;6.80;5.00
24224;DHT22;12359;49.716;9.212;2022-12-05T11:30:04;6.70;1.00
24224;DHT22;12359;49.716;9.212;2022-12-05T11:32:39;6.70;2.40
24224;DHT22;12359;49.716;9.212;2022-12-05T11:48:59;6.80;1.00
24224;DHT22;12359;49.716;9.212;2022-12-05T12:00:26;6.40;4.30
24224;DHT22;12359;49.716;9.212;2022-12-05T12:04:09;6.30;12.40
24224;DHT22;12359;49.716;9.212;2022-12-05T12:08:55;6.20;12.90
24224;DHT22;12359;49.716;9.212;2022-12-05T12:12:24;6.10;19.50
24224;DHT22;12359;49.716;9.212;2022-12-05T12:30:51;6.40;12.20
24224;DHT22;12359;49.716;9.212;2022-12-05T12:36:15;6.40;1.00
24224;DHT22;12359;49.716;9.212;2022-12-05T12:47:36;6.30;1.00
24224;DHT22;12359;49.716;9.212;2022-12-05T12:50:23;6.20;1.90
24224;DHT22;12359;49.716;9.212;2022-12-05T12:55:43;6.10;5.10
24224;DHT22;12359;49.716;9.212;2022-12-05T12:59:12;6.10;10.20
24224;DHT22;12359;49.716;9.212;2022-12-05T13:01:41;6.20;13.60
24224;DHT22;12359;49.716;9.212;2022-12-05T13:04:14;6.20;22.80
24224;DHT22;12359;49.716;9.212;2022-12-05T13:07:43;6.30;12.00
24224;DHT22;12359;49.716;9.212;2022-12-05T13:09:44;6.30;13.30
24224;DHT22;12359;49.716;9.212;2022-12-05T13:12:14;6.40;20.90
24224;DHT22;12359;49.716;9.212;2022-12-05T13:14:48;6.50;19.70
24224;DHT22;12359;49.716;9.212;2022-12-05T13:17:18;6.50;23.90
24224;DHT22;12359;49.716;9.212;2022-12-05T13:19:49;6.60;18.90
24224;DHT22;12359;49.716;9.212;2022-12-05T13:22:17;6.60;9.00
24224;DHT22;12359;49.716;9.212;2022-12-05T13:24:44;6.60;10.40
24224;DHT22;12359;49.716;9.212;2022-12-05T13:27:19;6.60;16.00
24224;DHT22;12359;49.716;9.212;2022-12-05T13:34:49;6.50;14.20
24224;DHT22;12359;49.716;9.212;2022-12-05T13:40:03;6.50;20.10
24224;DHT22;12359;49.716;9.212;2022-12-05T13:42:54;6.60;21.90
24224;DHT22;12359;49.716;9.212;2022-12-05T13:45:23;6.60;15.90
24224;DHT22;12359;49.716;9.212;2022-12-05T13:53:05;6.50;20.00
24224;DHT22;12359;49.716;9.212;2022-12-05T13:55:58;6.50;20.30
24224;DHT22;12359;49.716;9.212;2022-12-05T14:00:50;6.40;19.30
24224;DHT22;12359;49.716;9.212;2022-12-05T14:06:05;6.50;26.00
24224;DHT22;12359;49.716;9.212;2022-12-05T14:16:36;6.40;25.20
24224;DHT22;12359;49.716;9.212;2022-12-05T14:19:27;6.40;27.00
24224;DHT22;12359;49.716;9.212;2022-12-05T14:25:04;6.20;33.80
24224;DHT22;12359;49.716;9.212;2022-12-05T14:27:55;6.20;31.10
24224;DHT22;12359;49.716;9.212;2022-12-05T14:30:48;6.10;34.40
24224;DHT22;12359;49.716;9.212;2022-12-05T14:33:17;6.10;35.80
24224;DHT22;12359;49.716;9.212;2022-12-05T14:35:50;6.00;38.60
24224;DHT22;12359;49.716;9.212;2022-12-05T14:38:28;6.00;40.80
24224;DHT22;12359;49.716;9.212;2022-12-05T14:40:56;6.00;39.70
24224;DHT22;12359;49.716;9.212;2022-12-05T14:43:32;6.00;40.60
24224;DHT22;12359;49.716;9.212;2022-12-05T14:46:02;6.10;41.20
24224;DHT22;12359;49.716;9.212;2022-12-05T14:48:31;6.00;40.50
24224;DHT22;12359;49.716;9.212;2022-12-05T14:50:59;5.90;41.80
24224;DHT22;12359;49.716;9.212;2022-12-05T14:58:35;6.00;42.90
24224;DHT22;12359;49.716;9.212;2022-12-05T15:03:38;5.90;45.10
24224;DHT22;12359;49.716;9.212;2022-12-05T15:06:06;5.90;48.50
24224;DHT22;12359;49.716;9.212;2022-12-05T15:08:47;5.90;48.50
24224;DHT22;12359;49.716;9.212;2022-12-05T15:11:18;5.90;48.60
24224;DHT22;12359;49.716;9.212;2022-12-05T15:16:27;6.00;45.70
24224;DHT22;12359;49.716;9.212;2022-12-05T15:18:59;6.00;47.20
24224;DHT22;12359;49.716;9.212;2022-12-05T15:21:40;6.10;47.30
24224;DHT22;12359;49.716;9.212;2022-12-05T15:24:18;6.00;46.10
24224;DHT22;12359;49.716;9.212;2022-12-05T15:26:57;6.10;48.10
24224;DHT22;12359;49.716;9.212;2022-12-05T15:29:25;6.10;46.20
24224;DHT22;12359;49.716;9.212;2022-12-05T15:32:01;6.10;46.90
24224;DHT22;12359;49.716;9.212;2022-12-05T15:38:01;6.10;45.40
24224;DHT22;12359;49.716;9.212;2022-12-05T15:40:33;6.10;43.90
24224;DHT22;12359;49.716;9.212;2022-12-05T15:46:16;6.10;46.50
24224;DHT22;12359;49.716;9.212;2022-12-05T15:48:44;6.10;47.10
24224;DHT22;12359;49.716;9.212;2022-12-05T15:51:10;6.10;39.70
24224;DHT22;12359;49.716;9.212;2022-12-05T15:53:43;5.90;33.00
24224;DHT22;12359;49.716;9.212;2022-12-05T15:58:53;5.90;34.60
24224;DHT22;12359;49.716;9.212;2022-12-05T16:01:25;6.00;38.90
24224;DHT22;12359;49.716;9.212;2022-12-05T16:06:50;6.00;40.30
24224;DHT22;12359;49.716;9.212;2022-12-05T16:09:19;6.00;40.80
24224;DHT22;12359;49.716;9.212;2022-12-05T16:11:59;6.00;43.60
24224;DHT22;12359;49.716;9.212;2022-12-05T16:14:29;6.00;40.10
24224;DHT22;12359;49.716;9.212;2022-12-05T16:16:57;6.00;40.50
24224;DHT22;12359;49.716;9.212;2022-12-05T16:19:25;6.00;39.90
24224;DHT22;12359;49.716;9.212;2022-12-05T16:22:07;6.00;39.90
24224;DHT22;12359;49.716;9.212;2022-12-05T16:24:41;6.00;40.90
24224;DHT22;12359;49.716;9.212;2022-12-05T16:27:24;6.00;43.60
24224;DHT22;12359;49.716;9.212;2022-12-05T16:32:35;6.00;42.00
24224;DHT22;12359;49.716;9.212;2022-12-05T16:35:02;6.00;40.80
24224;DHT22;12359;49.716;9.212;2022-12-05T16:37:29;6.00;40.50
24224;DHT22;12359;49.716;9.212;2022-12-05T16:39:55;6.00;42.40
24224;DHT22;12359;49.716;9.212;2022-12-05T16:42:26;6.00;46.40
24224;DHT22;12359;49.716;9.212;2022-12-05T16:44:55;5.90;44.20
24224;DHT22;12359;49.716;9.212;2022-12-05T16:50:34;5.90;35.00
24224;DHT22;12359;49.716;9.212;2022-12-05T16:55:40;5.90;16.80
24224;DHT22;12359;49.716;9.212;2022-12-05T16:58:18;5.90;20.50
24224;DHT22;12359;49.716;9.212;2022-12-05T17:00:45;5.90;24.60
24224;DHT22;12359;49.716;9.212;2022-12-05T17:03:11;5.90;2.70
24224;DHT22;12359;49.716;9.212;2022-12-05T17:05:37;5.90;16.40
24224;DHT22;12359;49.716;9.212;2022-12-05T17:08:03;5.90;11.30
24224;DHT22;12359;49.716;9.212;2022-12-05T17:10:32;5.90;15.00
24224;DHT22;12359;49.716;9.212;2022-12-05T17:12:58;5.90;11.40
24224;DHT22;12359;49.716;9.212;2022-12-05T17:15:27;5.90;16.30
24224;DHT22;12359;49.716;9.212;2022-12-05T17:17:53;5.90;15.60
24224;DHT22;12359;49.716;9.212;2022-12-05T17:20:19;5.90;11.50
24224;DHT22;12359;49.716;9.212;2022-12-05T17:22:45;6.00;12.50
24224;DHT22;12359;49.716;9.212;2022-12-05T17:25:22;6.00;14.00
24224;DHT22;12359;49.716;9.212;2022-12-05T17:27:51;6.00;17.00
24224;DHT22;12359;49.716;9.212;2022-12-05T17:30:17;6.00;11.80
24224;DHT22;12359;49.716;9.212;2022-12-05T17:32:42;6.00;9.80
24224;DHT22;12359;49.716;9.212;2022-12-05T17:35:15;5.90;8.30
24224;DHT22;12359;49.716;9.212;2022-12-05T17:37:41;5.90;11.50
24224;DHT22;12359;49.716;9.212;2022-12-05T17:40:07;5.90;17.60
24224;DHT22;12359;49.716;9.212;2022-12-05T17:42:34;5.90;12.10
24224;DHT22;12359;49.716;9.212;2022-12-05T17:44:59;5.80;7.30
24224;DHT22;12359;49.716;9.212;2022-12-05T17:47:25;5.90;8.30
24224;DHT22;12359;49.716;9.212;2022-12-05T17:49:51;5.90;7.00
24224;DHT22;12359;49.716;9.212;2022-12-05T17:52:16;5.80;6.90
24224;DHT22;12359;49.716;9.212;2022-12-05T17:54:42;5.80;6.10
24224;DHT22;12359;49.716;9.212;2022-12-05T17:57:08;5.70;5.00
24224;DHT22;12359;49.716;9.212;2022-12-05T17:59:33;5.70;11.10
24224;DHT22;12359;49.716;9.212;2022-12-05T18:01:59;5.60;10.20
24224;DHT22;12359;49.716;9.212;2022-12-05T18:04:25;5.40;8.40
24224;DHT22;12359;49.716;9.212;2022-12-05T18:06:51;5.30;12.90
24224;DHT22;12359;49.716;9.212;2022-12-05T18:09:17;5.30;13.60
24224;DHT22;12359;49.716;9.212;2022-12-05T18:11:42;5.20;17.90
24224;DHT22;12359;49.716;9.212;2022-12-05T18:14:08;5.10;22.40
24224;DHT22;12359;49.716;9.212;2022-12-05T18:16:34;5.10;26.20
24224;DHT22;12359;49.716;9.212;2022-12-05T18:19:00;5.00;29.10
24224;DHT22;12359;49.716;9.212;2022-12-05T18:21:26;5.00;32.30
24224;DHT22;12359;49.716;9.212;2022-12-05T18:23:52;5.00;32.00
24224;DHT22;12359;49.716;9.212;2022-12-05T18:26:17;5.00;30.50
24224;DHT22;12359;49.716;9.212;2022-12-05T18:28:43;5.00;31.60
24224;DHT22;12359;49.716;9.212;2022-12-05T18:31:15;5.00;28.70
24224;DHT22;12359;49.716;9.212;2022-12-05T18:33:43;4.90;27.20
24224;DHT22;12359;49.716;9.212;2022-12-05T18:36:14;4.90;25.50
24224;DHT22;12359;49.716;9.212;2022-12-05T18:38:40;4.80;24.80
24224;DHT22;12359;49.716;9.212;2022-12-05T18:41:08;4.70;25.60
24224;DHT22;12359;49.716;9.212;2022-12-05T18:43:34;4.60;26.80
24224;DHT22;12359;49.716;9.212;2022-12-05T18:46:02;4.50;29.10
24224;DHT22;12359;49.716;9.212;2022-12-05T18:48:32;4.40;33.10
24224;DHT22;12359;49.716;9.212;2022-12-05T18:51:19;4.30;30.80
24224;DHT22;12359;49.716;9.212;2022-12-05T18:53:47;4.30;37.20
24224;DHT22;12359;49.716;9.212;2022-12-05T18:56:22;4.20;36.70
24224;DHT22;12359;49.716;9.212;2022-12-05T18:58:53;4.10;38.60
24224;DHT22;12359;49.716;9.212;2022-12-05T19:01:19;4.00;40.20
24224;DHT22;12359;49.716;9.212;2022-12-05T19:03:45;3.90;37.10
24224;DHT22;12359;49.716;9.212;2022-12-05T19:06:15;3.90;40.00
24224;DHT22;12359;49.716;9.212;2022-12-05T19:08:42;3.80;42.90
24224;DHT22;12359;49.716;9.212;2022-12-05T19:11:10;3.80;45.10
24224;DHT22;12359;49.716;9.212;2022-12-05T19:13:36;3.70;44.70
24224;DHT22;12359;49.716;9.212;2022-12-05T19:16:07;3.70;46.90